sensor_id;sensor_type;location;lat;lon;timestamp;P1;durP1;ratioP1;P2;durP2;ratioP2
15635;SDS011;7917;50.818;6.972;2023-06-10T00:00:46;11.18;;;10.07;;
15635;SDS011;7917;50.818;6.972;2023-06-10T00:03:13;11.50;;;10.10;;
15635;SDS011;7917;50.818;6.972;2023-06-10T00:05:40;11.90;;;10.73;;
15635;SDS011;7917;50.818;6.972;2023-06-10T00:08:11;10.98;;;9.80;;
15635;SDS011;7917;50.818;6.972;2023-06-10T00:10:44;11.25;;;10.05;;
15635;SDS011;7917;50.818;6.972;2023-06-10T00:13:15;11.90;;;10.38;;
15635;SDS011;7917;50.818;6.972;2023-06-10T00:15:45;13.10;;;10.63;;
15635;SDS011;7917;50.818;6.972;2023-06-10T00:18:12;12.43;;;10.20;;
15635;SDS011;7917;50.818;6.972;2023-06-10T00:20:39;13.60;;;10.18;;
15635;SDS011;7917;50.818;6.972;2023-06-10T00:23:07;12.13;;;10.88;;
15635;SDS011;7917;50.818;6.972;2023-06-10T00:25:35;11.45;;;10.40;;
15635;SDS011;7917;50.818;6.972;2023-06-10T00:28:02;10.93;;;9.88;;
15635;SDS011;7917;50.818;6.972;2023-06-10T00:30:29;12.68;;;10.40;;
15635;SDS011;7917;50.818;6.972;2023-06-10T00:32:56;12.20;;;10.68;;
15635;SDS011;7917;50.818;6.972;2023-06-10T00:35:23;12.57;;;10.63;;
15635;SDS011;7917;50.818;6.972;2023-06-10T00:37:50;13.88;;;11.05;;
15635;SDS011;7917;50.818;6.972;2023-06-10T00:40:17;17.30;;;10.93;;
15635;SDS011;7917;50.818;6.972;2023-06-10T00:42:45;11.57;;;10.38;;
15635;SDS011;7917;50.818;6.972;2023-06-10T00:45:12;12.02;;;10.88;;
15635;SDS011;7917;50.818;6.972;2023-06-10T00:47:39;12.40;;;10.90;;
15635;SDS011;7917;50.818;6.972;2023-06-10T00:50:07;11.93;;;10.70;;
15635;SDS011;7917;50.818;6.972;2023-06-10T00:52:34;13.52;;;11.15;;
15635;SDS011;7917;50.818;6.972;2023-06-10T00:55:02;11.93;;;10.45;;
15635;SDS011;7917;50.818;6.972;2023-06-10T00:57:33;11.35;;;9.93;;
15635;SDS011;7917;50.818;6.972;2023-06-10T01:00:01;14.70;;;9.85;;
15635;SDS011;7917;50.818;6.972;2023-06-10T01:02:32;12.77;;;10.32;;
15635;SDS011;7917;50.818;6.972;2023-06-10T01:04:59;12.45;;;10.45;;
15635;SDS011;7917;50.818;6.972;2023-06-10T01:07:28;12.13;;;10.82;;
15635;SDS011;7917;50.818;6.972;2023-06-10T01:10:01;14.32;;;10.40;;
15635;SDS011;7917;50.818;6.972;2023-06-10T01:12:31;11.73;;;10.50;;
15635;SDS011;7917;50.818;6.972;2023-06-10T01:15:04;13.13;;;10.65;;
15635;SDS011;7917;50.818;6.972;2023-06-10T01:17:33;11.38;;;10.30;;
15635;SDS011;7917;50.818;6.972;2023-06-10T01:20:01;12.50;;;11.20;;
15635;SDS011;7917;50.818;6.972;2023-06-10T01:25:26;12.63;;;11.35;;
15635;SDS011;7917;50.818;6.972;2023-06-10T01:27:54;12.48;;;11.25;;
15635;SDS011;7917;50.818;6.972;2023-06-10T01:30:26;14.63;;;11.82;;
15635;SDS011;7917;50.818;6.972;2023-06-10T01:32:56;13.52;;;12.13;;
15635;SDS011;7917;50.818;6.972;2023-06-10T01:35:25;16.55;;;12.35;;
15635;SDS011;7917;50.818;6.972;2023-06-10T01:37:55;13.43;;;11.77;;
15635;SDS011;7917;50.818;6.972;2023-06-10T01:40:24;12.77;;;11.48;;
15635;SDS011;7917;50.818;6.972;2023-06-10T01:42:52;12.52;;;11.32;;
15635;SDS011;7917;50.818;6.972;2023-06-10T01:45:19;12.75;;;11.38;;
15635;SDS011;7917;50.818;6.972;2023-06-10T01:47:46;12.82;;;11.63;;
15635;SDS011;7917;50.818;6.972;2023-06-10T01:50:13;12.70;;;11.50;;
15635;SDS011;7917;50.818;6.972;2023-06-10T01:52:41;13.75;;;12.25;;
15635;SDS011;7917;50.818;6.972;2023-06-10T01:55:09;13.27;;;11.98;;
15635;SDS011;7917;50.818;6.972;2023-06-10T01:57:36;13.95;;;12.55;;
15635;SDS011;7917;50.818;6.972;2023-06-10T02:00:03;13.82;;;12.10;;
15635;SDS011;7917;50.818;6.972;2023-06-10T02:02:31;12.48;;;10.95;;
15635;SDS011;7917;50.818;6.972;2023-06-10T02:04:58;12.25;;;11.05;;
15635;SDS011;7917;50.818;6.972;2023-06-10T02:07:25;13.90;;;11.60;;
15635;SDS011;7917;50.818;6.972;2023-06-10T02:09:52;13.38;;;11.98;;
15635;SDS011;7917;50.818;6.972;2023-06-10T02:12:20;13.88;;;11.32;;
15635;SDS011;7917;50.818;6.972;2023-06-10T02:14:47;12.48;;;11.38;;
15635;SDS011;7917;50.818;6.972;2023-06-10T02:17:14;13.55;;;12.18;;
15635;SDS011;7917;50.818;6.972;2023-06-10T02:19:41;12.75;;;11.45;;
15635;SDS011;7917;50.818;6.972;2023-06-10T02:22:08;13.77;;;12.38;;
15635;SDS011;7917;50.818;6.972;2023-06-10T02:24:35;13.15;;;11.77;;
15635;SDS011;7917;50.818;6.972;2023-06-10T02:27:03;14.68;;;12.13;;
15635;SDS011;7917;50.818;6.972;2023-06-10T02:29:33;13.18;;;11.77;;
15635;SDS011;7917;50.818;6.972;2023-06-10T02:32:01;12.15;;;11.05;;
15635;SDS011;7917;50.818;6.972;2023-06-10T02:34:32;15.93;;;12.27;;
15635;SDS011;7917;50.818;6.972;2023-06-10T02:36:59;13.77;;;11.80;;
15635;SDS011;7917;50.818;6.972;2023-06-10T02:39:27;13.80;;;12.40;;
15635;SDS011;7917;50.818;6.972;2023-06-10T02:41:54;13.23;;;11.93;;
15635;SDS011;7917;50.818;6.972;2023-06-10T02:44:21;14.57;;;12.50;;
15635;SDS011;7917;50.818;6.972;2023-06-10T02:46:48;13.80;;;12.40;;
15635;SDS011;7917;50.818;6.972;2023-06-10T02:49:15;14.52;;;12.80;;
15635;SDS011;7917;50.818;6.972;2023-06-10T02:51:42;14.23;;;12.73;;
15635;SDS011;7917;50.818;6.972;2023-06-10T02:54:10;14.98;;;12.95;;
15635;SDS011;7917;50.818;6.972;2023-06-10T02:56:36;13.77;;;12.38;;
15635;SDS011;7917;50.818;6.972;2023-06-10T02:59:06;14.55;;;13.05;;
15635;SDS011;7917;50.818;6.972;2023-06-10T03:01:33;14.93;;;12.85;;
15635;SDS011;7917;50.818;6.972;2023-06-10T03:04:03;17.65;;;13.55;;
15635;SDS011;7917;50.818;6.972;2023-06-10T03:06:30;13.73;;;12.43;;
15635;SDS011;7917;50.818;6.972;2023-06-10T03:08:59;14.85;;;13.25;;
15635;SDS011;7917;50.818;6.972;2023-06-10T03:11:26;13.98;;;12.68;;
15635;SDS011;7917;50.818;6.972;2023-06-10T03:13:53;14.02;;;12.65;;
15635;SDS011;7917;50.818;6.972;2023-06-10T03:16:20;14.07;;;12.68;;
15635;SDS011;7917;50.818;6.972;2023-06-10T03:18:48;16.27;;;13.35;;
15635;SDS011;7917;50.818;6.972;2023-06-10T03:21:16;14.10;;;12.80;;
15635;SDS011;7917;50.818;6.972;2023-06-10T03:23:43;14.93;;;12.93;;
15635;SDS011;7917;50.818;6.972;2023-06-10T03:26:10;15.13;;;13.32;;
15635;SDS011;7917;50.818;6.972;2023-06-10T03:28:38;13.65;;;12.40;;
15635;SDS011;7917;50.818;6.972;2023-06-10T03:31:05;15.65;;;13.27;;
15635;SDS011;7917;50.818;6.972;2023-06-10T03:33:32;13.43;;;12.23;;
15635;SDS011;7917;50.818;6.972;2023-06-10T03:35:59;14.38;;;12.93;;
15635;SDS011;7917;50.818;6.972;2023-06-10T03:38:27;15.85;;;13.45;;
15635;SDS011;7917;50.818;6.972;2023-06-10T03:40:53;14.38;;;12.93;;
15635;SDS011;7917;50.818;6.972;2023-06-10T03:43:20;14.35;;;12.85;;
15635;SDS011;7917;50.818;6.972;2023-06-10T03:45:47;14.20;;;12.70;;
15635;SDS011;7917;50.818;6.972;2023-06-10T03:48:14;13.27;;;11.98;;
15635;SDS011;7917;50.818;6.972;2023-06-10T03:50:41;14.25;;;12.70;;
15635;SDS011;7917;50.818;6.972;2023-06-10T03:53:08;14.13;;;11.65;;
15635;SDS011;7917;50.818;6.972;2023-06-10T03:55:36;13.52;;;12.13;;
15635;SDS011;7917;50.818;6.972;2023-06-10T03:58:03;13.77;;;12.35;;
15635;SDS011;7917;50.818;6.972;2023-06-10T04:00:30;13.80;;;12.40;;
15635;SDS011;7917;50.818;6.972;2023-06-10T04:02:58;14.90;;;12.48;;
15635;SDS011;7917;50.818;6.972;2023-06-10T04:05:25;14.10;;;12.73;;
15635;SDS011;7917;50.818;6.972;2023-06-10T04:07:54;14.77;;;11.50;;
15635;SDS011;7917;50.818;6.972;2023-06-10T04:10:20;14.32;;;12.50;;
15635;SDS011;7917;50.818;6.972;2023-06-10T04:12:48;13.50;;;12.10;;
15635;SDS011;7917;50.818;6.972;2023-06-10T04:15:15;14.73;;;12.30;;
15635;SDS011;7917;50.818;6.972;2023-06-10T04:17:42;12.57;;;11.38;;
15635;SDS011;7917;50.818;6.972;2023-06-10T04:20:09;19.08;;;13.63;;
15635;SDS011;7917;50.818;6.972;2023-06-10T04:22:36;13.95;;;12.15;;
15635;SDS011;7917;50.818;6.972;2023-06-10T04:25:02;13.15;;;11.05;;
15635;SDS011;7917;50.818;6.972;2023-06-10T04:27:29;13.07;;;11.25;;
15635;SDS011;7917;50.818;6.972;2023-06-10T04:29:57;12.52;;;11.23;;
15635;SDS011;7917;50.818;6.972;2023-06-10T04:32:24;13.30;;;11.52;;
15635;SDS011;7917;50.818;6.972;2023-06-10T04:34:51;12.05;;;10.95;;
15635;SDS011;7917;50.818;6.972;2023-06-10T04:37:18;12.07;;;10.57;;
15635;SDS011;7917;50.818;6.972;2023-06-10T04:39:45;11.77;;;10.68;;
15635;SDS011;7917;50.818;6.972;2023-06-10T04:42:12;11.90;;;10.73;;
15635;SDS011;7917;50.818;6.972;2023-06-10T04:44:39;14.55;;;10.77;;
15635;SDS011;7917;50.818;6.972;2023-06-10T04:47:06;11.77;;;9.77;;
15635;SDS011;7917;50.818;6.972;2023-06-10T04:49:34;10.77;;;9.38;;
15635;SDS011;7917;50.818;6.972;2023-06-10T04:52:01;10.90;;;9.70;;
15635;SDS011;7917;50.818;6.972;2023-06-10T04:54:29;10.60;;;9.50;;
15635;SDS011;7917;50.818;6.972;2023-06-10T04:56:57;10.23;;;9.18;;
15635;SDS011;7917;50.818;6.972;2023-06-10T04:59:25;12.10;;;8.93;;
15635;SDS011;7917;50.818;6.972;2023-06-10T05:01:55;11.27;;;9.02;;
15635;SDS011;7917;50.818;6.972;2023-06-10T05:04:22;14.30;;;9.77;;
15635;SDS011;7917;50.818;6.972;2023-06-10T05:06:49;11.05;;;9.50;;
15635;SDS011;7917;50.818;6.972;2023-06-10T05:09:16;9.43;;;8.52;;
15635;SDS011;7917;50.818;6.972;2023-06-10T05:11:43;12.65;;;8.77;;
15635;SDS011;7917;50.818;6.972;2023-06-10T05:14:10;9.18;;;7.85;;
15635;SDS011;7917;50.818;6.972;2023-06-10T05:16:36;10.23;;;9.23;;
15635;SDS011;7917;50.818;6.972;2023-06-10T05:19:04;12.07;;;8.82;;
15635;SDS011;7917;50.818;6.972;2023-06-10T05:21:31;10.32;;;9.23;;
15635;SDS011;7917;50.818;6.972;2023-06-10T05:23:58;9.82;;;8.90;;
15635;SDS011;7917;50.818;6.972;2023-06-10T05:26:25;10.55;;;8.77;;
15635;SDS011;7917;50.818;6.972;2023-06-10T05:28:52;9.85;;;8.13;;
15635;SDS011;7917;50.818;6.972;2023-06-10T05:31:18;13.65;;;7.50;;
15635;SDS011;7917;50.818;6.972;2023-06-10T05:33:45;8.05;;;7.22;;
15635;SDS011;7917;50.818;6.972;2023-06-10T05:36:12;7.43;;;6.72;;
15635;SDS011;7917;50.818;6.972;2023-06-10T05:38:39;9.75;;;6.90;;
15635;SDS011;7917;50.818;6.972;2023-06-10T05:41:06;8.50;;;7.55;;
15635;SDS011;7917;50.818;6.972;2023-06-10T05:43:33;9.93;;;7.50;;
15635;SDS011;7917;50.818;6.972;2023-06-10T05:46:00;8.85;;;7.13;;
15635;SDS011;7917;50.818;6.972;2023-06-10T05:48:27;8.35;;;6.55;;
15635;SDS011;7917;50.818;6.972;2023-06-10T05:50:53;9.63;;;7.43;;
15635;SDS011;7917;50.818;6.972;2023-06-10T05:53:20;9.18;;;6.47;;
15635;SDS011;7917;50.818;6.972;2023-06-10T05:55:48;8.75;;;7.03;;
15635;SDS011;7917;50.818;6.972;2023-06-10T05:58:15;7.53;;;6.63;;
15635;SDS011;7917;50.818;6.972;2023-06-10T06:00:42;10.13;;;6.82;;
15635;SDS011;7917;50.818;6.972;2023-06-10T06:03:09;10.80;;;6.65;;
15635;SDS011;7917;50.818;6.972;2023-06-10T06:05:36;7.65;;;6.90;;
15635;SDS011;7917;50.818;6.972;2023-06-10T06:08:03;8.50;;;7.05;;
15635;SDS011;7917;50.818;6.972;2023-06-10T06:10:30;7.47;;;6.55;;
15635;SDS011;7917;50.818;6.972;2023-06-10T06:12:58;7.15;;;6.45;;
15635;SDS011;7917;50.818;6.972;2023-06-10T06:15:29;7.60;;;6.68;;
15635;SDS011;7917;50.818;6.972;2023-06-10T06:17:56;8.00;;;7.05;;
15635;SDS011;7917;50.818;6.972;2023-06-10T06:20:22;8.63;;;6.97;;
15635;SDS011;7917;50.818;6.972;2023-06-10T06:22:52;9.40;;;7.72;;
15635;SDS011;7917;50.818;6.972;2023-06-10T06:25:19;7.88;;;6.32;;
15635;SDS011;7917;50.818;6.972;2023-06-10T06:27:46;7.82;;;7.00;;
15635;SDS011;7917;50.818;6.972;2023-06-10T06:30:13;7.60;;;6.53;;
15635;SDS011;7917;50.818;6.972;2023-06-10T06:32:40;7.30;;;6.47;;
15635;SDS011;7917;50.818;6.972;2023-06-10T06:35:08;10.38;;;6.68;;
15635;SDS011;7917;50.818;6.972;2023-06-10T06:37:35;7.07;;;6.38;;
15635;SDS011;7917;50.818;6.972;2023-06-10T06:40:02;9.60;;;6.90;;
15635;SDS011;7917;50.818;6.972;2023-06-10T06:42:29;7.03;;;6.30;;
15635;SDS011;7917;50.818;6.972;2023-06-10T06:44:56;7.43;;;6.15;;
15635;SDS011;7917;50.818;6.972;2023-06-10T06:47:25;7.30;;;6.60;;
15635;SDS011;7917;50.818;6.972;2023-06-10T06:49:52;7.85;;;6.15;;
15635;SDS011;7917;50.818;6.972;2023-06-10T06:52:19;7.55;;;6.28;;
15635;SDS011;7917;50.818;6.972;2023-06-10T06:54:47;6.88;;;6.18;;
15635;SDS011;7917;50.818;6.972;2023-06-10T06:57:14;8.75;;;6.15;;
15635;SDS011;7917;50.818;6.972;2023-06-10T06:59:41;8.55;;;6.57;;
15635;SDS011;7917;50.818;6.972;2023-06-10T07:02:08;9.25;;;6.10;;
15635;SDS011;7917;50.818;6.972;2023-06-10T07:04:36;7.88;;;6.18;;
15635;SDS011;7917;50.818;6.972;2023-06-10T07:07:04;7.30;;;6.57;;
15635;SDS011;7917;50.818;6.972;2023-06-10T07:09:33;9.52;;;6.40;;
15635;SDS011;7917;50.818;6.972;2023-06-10T07:12:01;11.38;;;6.80;;
15635;SDS011;7917;50.818;6.972;2023-06-10T07:14:34;7.82;;;6.70;;
15635;SDS011;7917;50.818;6.972;2023-06-10T07:17:01;8.43;;;6.22;;
15635;SDS011;7917;50.818;6.972;2023-06-10T07:19:28;7.35;;;6.28;;
15635;SDS011;7917;50.818;6.972;2023-06-10T07:21:56;9.02;;;6.25;;
15635;SDS011;7917;50.818;6.972;2023-06-10T07:24:23;9.18;;;6.50;;
15635;SDS011;7917;50.818;6.972;2023-06-10T07:26:50;17.38;;;6.65;;
15635;SDS011;7917;50.818;6.972;2023-06-10T07:29:17;10.48;;;6.50;;
15635;SDS011;7917;50.818;6.972;2023-06-10T07:31:44;9.93;;;6.68;;
15635;SDS011;7917;50.818;6.972;2023-06-10T07:34:11;7.35;;;6.20;;
15635;SDS011;7917;50.818;6.972;2023-06-10T07:36:38;10.32;;;6.78;;
15635;SDS011;7917;50.818;6.972;2023-06-10T07:39:06;7.75;;;6.55;;
15635;SDS011;7917;50.818;6.972;2023-06-10T07:41:34;11.40;;;6.70;;
15635;SDS011;7917;50.818;6.972;2023-06-10T07:44:01;11.32;;;6.78;;
15635;SDS011;7917;50.818;6.972;2023-06-10T07:46:28;22.60;;;7.65;;
15635;SDS011;7917;50.818;6.972;2023-06-10T07:48:55;13.93;;;6.88;;
15635;SDS011;7917;50.818;6.972;2023-06-10T07:51:25;9.20;;;7.18;;
15635;SDS011;7917;50.818;6.972;2023-06-10T07:53:52;25.38;;;7.57;;
15635;SDS011;7917;50.818;6.972;2023-06-10T07:56:20;10.88;;;6.85;;
15635;SDS011;7917;50.818;6.972;2023-06-10T07:58:50;13.15;;;7.13;;
15635;SDS011;7917;50.818;6.972;2023-06-10T08:01:17;8.38;;;6.60;;
15635;SDS011;7917;50.818;6.972;2023-06-10T08:03:44;8.52;;;6.40;;
15635;SDS011;7917;50.818;6.972;2023-06-10T08:06:11;8.52;;;6.32;;
15635;SDS011;7917;50.818;6.972;2023-06-10T08:08:38;9.13;;;5.90;;
15635;SDS011;7917;50.818;6.972;2023-06-10T08:11:08;7.05;;;6.35;;
15635;SDS011;7917;50.818;6.972;2023-06-10T08:13:35;8.57;;;6.47;;
15635;SDS011;7917;50.818;6.972;2023-06-10T08:16:03;11.45;;;6.28;;
15635;SDS011;7917;50.818;6.972;2023-06-10T08:18:30;6.82;;;6.22;;
15635;SDS011;7917;50.818;6.972;2023-06-10T08:21:00;7.22;;;5.95;;
15635;SDS011;7917;50.818;6.972;2023-06-10T08:23:27;9.30;;;6.47;;
15635;SDS011;7917;50.818;6.972;2023-06-10T08:25:54;7.97;;;6.60;;
15635;SDS011;7917;50.818;6.972;2023-06-10T08:28:21;7.32;;;6.07;;
15635;SDS011;7917;50.818;6.972;2023-06-10T08:30:49;11.27;;;6.20;;
15635;SDS011;7917;50.818;6.972;2023-06-10T08:33:16;13.75;;;6.43;;
15635;SDS011;7917;50.818;6.972;2023-06-10T08:35:43;6.90;;;6.20;;
15635;SDS011;7917;50.818;6.972;2023-06-10T08:38:10;7.60;;;6.88;;
15635;SDS011;7917;50.818;6.972;2023-06-10T08:40:37;6.97;;;6.20;;
15635;SDS011;7917;50.818;6.972;2023-06-10T08:43:05;11.60;;;6.53;;
15635;SDS011;7917;50.818;6.972;2023-06-10T08:45:34;8.90;;;6.22;;
15635;SDS011;7917;50.818;6.972;2023-06-10T08:48:03;7.70;;;6.35;;
15635;SDS011;7917;50.818;6.972;2023-06-10T08:50:32;11.85;;;6.78;;
15635;SDS011;7917;50.818;6.972;2023-06-10T08:53:01;8.65;;;7.00;;
15635;SDS011;7917;50.818;6.972;2023-06-10T08:55:31;7.28;;;6.57;;
15635;SDS011;7917;50.818;6.972;2023-06-10T08:57:59;7.25;;;6.35;;
15635;SDS011;7917;50.818;6.972;2023-06-10T09:00:27;10.43;;;7.00;;
15635;SDS011;7917;50.818;6.972;2023-06-10T09:02:55;7.22;;;6.30;;
15635;SDS011;7917;50.818;6.972;2023-06-10T09:05:24;9.10;;;6.95;;
15635;SDS011;7917;50.818;6.972;2023-06-10T09:07:53;10.38;;;6.68;;
15635;SDS011;7917;50.818;6.972;2023-06-10T09:10:22;8.73;;;6.78;;
15635;SDS011;7917;50.818;6.972;2023-06-10T09:12:51;7.93;;;6.40;;
15635;SDS011;7917;50.818;6.972;2023-06-10T09:15:19;7.90;;;6.90;;
15635;SDS011;7917;50.818;6.972;2023-06-10T09:17:46;7.93;;;6.15;;
15635;SDS011;7917;50.818;6.972;2023-06-10T09:20:13;7.47;;;6.22;;
15635;SDS011;7917;50.818;6.972;2023-06-10T09:22:41;12.63;;;6.80;;
15635;SDS011;7917;50.818;6.972;2023-06-10T09:25:09;7.05;;;6.35;;
15635;SDS011;7917;50.818;6.972;2023-06-10T09:27:44;7.07;;;6.13;;
15635;SDS011;7917;50.818;6.972;2023-06-10T09:30:24;9.82;;;6.63;;
15635;SDS011;7917;50.818;6.972;2023-06-10T09:32:53;6.93;;;6.30;;
15635;SDS011;7917;50.818;6.972;2023-06-10T09:35:22;7.03;;;6.30;;
15635;SDS011;7917;50.818;6.972;2023-06-10T09:37:50;10.18;;;6.80;;
15635;SDS011;7917;50.818;6.972;2023-06-10T09:40:19;9.60;;;6.50;;
15635;SDS011;7917;50.818;6.972;2023-06-10T09:42:46;8.85;;;6.63;;
15635;SDS011;7917;50.818;6.972;2023-06-10T09:45:20;10.15;;;6.80;;
15635;SDS011;7917;50.818;6.972;2023-06-10T09:47:50;8.52;;;6.15;;
15635;SDS011;7917;50.818;6.972;2023-06-10T09:50:18;8.50;;;6.50;;
15635;SDS011;7917;50.818;6.972;2023-06-10T09:52:56;8.05;;;6.68;;
15635;SDS011;7917;50.818;6.972;2023-06-10T09:55:23;7.30;;;6.60;;
15635;SDS011;7917;50.818;6.972;2023-06-10T09:57:52;7.65;;;6.40;;
15635;SDS011;7917;50.818;6.972;2023-06-10T10:00:21;8.40;;;6.38;;
15635;SDS011;7917;50.818;6.972;2023-06-10T10:02:49;8.30;;;6.35;;
15635;SDS011;7917;50.818;6.972;2023-06-10T10:05:17;6.88;;;5.90;;
15635;SDS011;7917;50.818;6.972;2023-06-10T10:07:45;6.85;;;6.15;;
15635;SDS011;7917;50.818;6.972;2023-06-10T10:10:13;8.45;;;6.55;;
15635;SDS011;7917;50.818;6.972;2023-06-10T10:12:41;11.98;;;6.53;;
15635;SDS011;7917;50.818;6.972;2023-06-10T10:15:09;7.78;;;6.93;;
15635;SDS011;7917;50.818;6.972;2023-06-10T10:17:37;7.07;;;6.40;;
15635;SDS011;7917;50.818;6.972;2023-06-10T10:20:09;6.75;;;5.95;;
15635;SDS011;7917;50.818;6.972;2023-06-10T10:22:41;8.45;;;6.07;;
15635;SDS011;7917;50.818;6.972;2023-06-10T10:25:16;8.02;;;6.45;;
15635;SDS011;7917;50.818;6.972;2023-06-10T10:27:51;7.30;;;6.57;;
15635;SDS011;7917;50.818;6.972;2023-06-10T10:30:21;8.48;;;6.82;;
15635;SDS011;7917;50.818;6.972;2023-06-10T10:32:52;9.50;;;6.78;;
15635;SDS011;7917;50.818;6.972;2023-06-10T10:35:24;9.35;;;6.28;;
15635;SDS011;7917;50.818;6.972;2023-06-10T10:37:52;11.77;;;6.20;;
15635;SDS011;7917;50.818;6.972;2023-06-10T10:40:21;8.13;;;6.13;;
15635;SDS011;7917;50.818;6.972;2023-06-10T10:42:49;8.80;;;7.38;;
15635;SDS011;7917;50.818;6.972;2023-06-10T10:45:18;7.07;;;6.38;;
15635;SDS011;7917;50.818;6.972;2023-06-10T10:47:48;6.95;;;6.35;;
15635;SDS011;7917;50.818;6.972;2023-06-10T10:50:19;7.32;;;5.90;;
15635;SDS011;7917;50.818;6.972;2023-06-10T10:52:51;12.13;;;6.70;;
15635;SDS011;7917;50.818;6.972;2023-06-10T10:55:20;6.90;;;6.30;;
15635;SDS011;7917;50.818;6.972;2023-06-10T10:57:54;8.32;;;6.10;;
15635;SDS011;7917;50.818;6.972;2023-06-10T11:00:27;6.70;;;6.10;;
15635;SDS011;7917;50.818;6.972;2023-06-10T11:02:57;8.13;;;6.10;;
15635;SDS011;7917;50.818;6.972;2023-06-10T11:05:35;6.72;;;5.95;;
15635;SDS011;7917;50.818;6.972;2023-06-10T11:08:04;8.90;;;6.45;;
15635;SDS011;7917;50.818;6.972;2023-06-10T11:10:32;6.53;;;5.60;;
15635;SDS011;7917;50.818;6.972;2023-06-10T11:13:00;6.40;;;5.78;;
15635;SDS011;7917;50.818;6.972;2023-06-10T11:15:38;7.75;;;5.93;;
15635;SDS011;7917;50.818;6.972;2023-06-10T11:18:15;6.85;;;5.40;;
15635;SDS011;7917;50.818;6.972;2023-06-10T11:20:59;7.63;;;5.53;;
15635;SDS011;7917;50.818;6.972;2023-06-10T11:23:34;6.45;;;5.85;;
15635;SDS011;7917;50.818;6.972;2023-06-10T11:26:21;7.00;;;6.00;;
15635;SDS011;7917;50.818;6.972;2023-06-10T11:29:03;6.95;;;5.28;;
15635;SDS011;7917;50.818;6.972;2023-06-10T11:31:38;9.93;;;5.88;;
15635;SDS011;7917;50.818;6.972;2023-06-10T11:34:06;8.38;;;5.53;;
15635;SDS011;7917;50.818;6.972;2023-06-10T11:36:36;11.43;;;6.50;;
15635;SDS011;7917;50.818;6.972;2023-06-10T11:39:05;6.90;;;5.82;;
15635;SDS011;7917;50.818;6.972;2023-06-10T11:41:34;8.25;;;5.65;;
15635;SDS011;7917;50.818;6.972;2023-06-10T11:44:08;9.13;;;5.93;;
15635;SDS011;7917;50.818;6.972;2023-06-10T11:46:36;6.75;;;5.60;;
15635;SDS011;7917;50.818;6.972;2023-06-10T11:49:04;7.18;;;5.35;;
15635;SDS011;7917;50.818;6.972;2023-06-10T11:51:33;6.30;;;5.70;;
15635;SDS011;7917;50.818;6.972;2023-06-10T11:54:00;6.40;;;5.43;;
15635;SDS011;7917;50.818;6.972;2023-06-10T11:56:27;9.10;;;6.10;;
15635;SDS011;7917;50.818;6.972;2023-06-10T11:58:57;8.82;;;6.22;;
15635;SDS011;7917;50.818;6.972;2023-06-10T12:01:29;8.05;;;5.57;;
15635;SDS011;7917;50.818;6.972;2023-06-10T12:03:57;8.00;;;5.20;;
15635;SDS011;7917;50.818;6.972;2023-06-10T12:06:25;6.15;;;5.55;;
15635;SDS011;7917;50.818;6.972;2023-06-10T12:08:53;6.07;;;5.13;;
15635;SDS011;7917;50.818;6.972;2023-06-10T12:11:21;5.70;;;5.18;;
15635;SDS011;7917;50.818;6.972;2023-06-10T12:13:49;7.43;;;5.05;;
15635;SDS011;7917;50.818;6.972;2023-06-10T12:16:19;6.18;;;5.57;;
15635;SDS011;7917;50.818;6.972;2023-06-10T12:18:46;7.43;;;5.22;;
15635;SDS011;7917;50.818;6.972;2023-06-10T12:21:18;8.20;;;5.20;;
15635;SDS011;7917;50.818;6.972;2023-06-10T12:26:46;9.85;;;5.50;;
15635;SDS011;7917;50.818;6.972;2023-06-10T12:29:16;6.93;;;5.13;;
15635;SDS011;7917;50.818;6.972;2023-06-10T12:31:55;6.95;;;5.07;;
15635;SDS011;7917;50.818;6.972;2023-06-10T12:34:34;6.28;;;4.93;;
15635;SDS011;7917;50.818;6.972;2023-06-10T12:37:02;6.13;;;4.93;;
15635;SDS011;7917;50.818;6.972;2023-06-10T12:39:31;6.80;;;5.13;;
15635;SDS011;7917;50.818;6.972;2023-06-10T12:42:00;7.35;;;5.07;;
15635;SDS011;7917;50.818;6.972;2023-06-10T12:44:29;6.15;;;5.25;;
15635;SDS011;7917;50.818;6.972;2023-06-10T12:46:57;6.80;;;4.30;;
15635;SDS011;7917;50.818;6.972;2023-06-10T12:49:24;7.38;;;5.07;;
15635;SDS011;7917;50.818;6.972;2023-06-10T12:51:52;8.50;;;5.03;;
15635;SDS011;7917;50.818;6.972;2023-06-10T12:54:19;9.85;;;5.88;;
15635;SDS011;7917;50.818;6.972;2023-06-10T12:56:46;7.40;;;5.20;;
15635;SDS011;7917;50.818;6.972;2023-06-10T12:59:13;8.93;;;5.65;;
15635;SDS011;7917;50.818;6.972;2023-06-10T13:01:41;5.55;;;4.90;;
15635;SDS011;7917;50.818;6.972;2023-06-10T13:04:09;7.18;;;5.03;;
15635;SDS011;7917;50.818;6.972;2023-06-10T13:06:37;6.13;;;4.88;;
15635;SDS011;7917;50.818;6.972;2023-06-10T13:09:07;5.93;;;4.93;;
15635;SDS011;7917;50.818;6.972;2023-06-10T13:11:35;6.25;;;5.18;;
15635;SDS011;7917;50.818;6.972;2023-06-10T13:14:02;12.07;;;4.97;;
15635;SDS011;7917;50.818;6.972;2023-06-10T13:16:31;5.63;;;5.03;;
15635;SDS011;7917;50.818;6.972;2023-06-10T13:18:58;6.50;;;4.72;;
15635;SDS011;7917;50.818;6.972;2023-06-10T13:21:28;4.88;;;4.43;;
15635;SDS011;7917;50.818;6.972;2023-06-10T13:23:55;7.47;;;4.75;;
15635;SDS011;7917;50.818;6.972;2023-06-10T13:26:23;8.95;;;4.97;;
15635;SDS011;7917;50.818;6.972;2023-06-10T13:28:50;7.35;;;5.13;;
15635;SDS011;7917;50.818;6.972;2023-06-10T13:31:20;5.82;;;5.18;;
15635;SDS011;7917;50.818;6.972;2023-06-10T13:33:53;5.43;;;4.32;;
15635;SDS011;7917;50.818;6.972;2023-06-10T13:36:30;7.57;;;4.78;;
15635;SDS011;7917;50.818;6.972;2023-06-10T13:38:57;8.07;;;4.72;;
15635;SDS011;7917;50.818;6.972;2023-06-10T13:41:24;8.05;;;4.47;;
15635;SDS011;7917;50.818;6.972;2023-06-10T13:43:52;6.55;;;4.53;;
15635;SDS011;7917;50.818;6.972;2023-06-10T13:46:20;5.53;;;4.10;;
15635;SDS011;7917;50.818;6.972;2023-06-10T13:48:47;6.10;;;4.35;;
15635;SDS011;7917;50.818;6.972;2023-06-10T13:51:14;6.25;;;4.85;;
15635;SDS011;7917;50.818;6.972;2023-06-10T13:53:42;6.63;;;4.90;;
15635;SDS011;7917;50.818;6.972;2023-06-10T13:56:11;7.55;;;4.97;;
15635;SDS011;7917;50.818;6.972;2023-06-10T13:58:38;4.22;;;3.92;;
15635;SDS011;7917;50.818;6.972;2023-06-10T14:01:07;7.70;;;5.82;;
15635;SDS011;7917;50.818;6.972;2023-06-10T14:03:35;8.57;;;4.70;;
15635;SDS011;7917;50.818;6.972;2023-06-10T14:06:02;6.85;;;4.40;;
15635;SDS011;7917;50.818;6.972;2023-06-10T14:08:29;11.75;;;4.65;;
15635;SDS011;7917;50.818;6.972;2023-06-10T14:10:57;7.50;;;4.38;;
15635;SDS011;7917;50.818;6.972;2023-06-10T14:13:24;5.53;;;4.45;;
15635;SDS011;7917;50.818;6.972;2023-06-10T14:15:51;5.22;;;4.75;;
15635;SDS011;7917;50.818;6.972;2023-06-10T14:18:18;6.68;;;4.13;;
15635;SDS011;7917;50.818;6.972;2023-06-10T14:20:45;8.15;;;4.63;;
15635;SDS011;7917;50.818;6.972;2023-06-10T14:23:12;5.25;;;4.40;;
15635;SDS011;7917;50.818;6.972;2023-06-10T14:25:42;6.60;;;5.00;;
15635;SDS011;7917;50.818;6.972;2023-06-10T14:28:10;5.40;;;4.32;;
15635;SDS011;7917;50.818;6.972;2023-06-10T14:30:37;9.95;;;4.72;;
15635;SDS011;7917;50.818;6.972;2023-06-10T14:33:04;6.85;;;4.32;;
15635;SDS011;7917;50.818;6.972;2023-06-10T14:35:40;9.35;;;4.30;;
15635;SDS011;7917;50.818;6.972;2023-06-10T14:38:08;6.72;;;4.30;;
15635;SDS011;7917;50.818;6.972;2023-06-10T14:40:35;6.57;;;4.60;;
15635;SDS011;7917;50.818;6.972;2023-06-10T14:43:02;6.53;;;4.50;;
15635;SDS011;7917;50.818;6.972;2023-06-10T14:45:35;5.32;;;4.35;;
15635;SDS011;7917;50.818;6.972;2023-06-10T14:48:03;5.85;;;4.30;;
15635;SDS011;7917;50.818;6.972;2023-06-10T14:50:30;7.55;;;4.28;;
15635;SDS011;7917;50.818;6.972;2023-06-10T14:52:57;8.35;;;5.00;;
15635;SDS011;7917;50.818;6.972;2023-06-10T14:55:24;6.25;;;4.88;;
15635;SDS011;7917;50.818;6.972;2023-06-10T14:57:51;5.32;;;4.75;;
15635;SDS011;7917;50.818;6.972;2023-06-10T15:00:19;5.30;;;4.80;;
15635;SDS011;7917;50.818;6.972;2023-06-10T15:02:49;5.88;;;5.38;;